Deerpark, New York
Current Conditions -  °F | °C
As of 6:56 PM on Tuesday 25 Nov 2014 (Local Time) from KISP Reporting Station
Overcast Overcast  
Wind Chill: 44°   Ceiling: 17000
Heat Index: 46°   Visibility: 10mi
Dew Point: 34°   Wind: 5mph
Humidity: 63%   Direction: 240°WSW
Pressure: 30.04"   Gusts: NA
Location:  40.7623°N, 73.3217°W
Report Text: KISP 252356Z 24004KT 10SM BKN170 OVC240 08/01 A3004 RMK AO2 SLP172 T00780011 10133 20078 51017
Loading
Personal Weather Stations






























Interactive Weather Map New forecast layout! Learn more

10-Day Weather Forecast

Advertisements
Track Severe Weather on mobile